sensor_id;sensor_type;location;lat;lon;timestamp;P1;durP1;ratioP1;P2;durP2;ratioP2
61397;SDS011;47267;48.130;-2.040;2023-06-01T00:02:21;5.50;;;4.22;;
61397;SDS011;47267;48.130;-2.040;2023-06-01T00:04:47;6.93;;;4.20;;
61397;SDS011;47267;48.130;-2.040;2023-06-01T00:07:13;7.15;;;4.22;;
61397;SDS011;47267;48.130;-2.040;2023-06-01T00:09:39;6.88;;;4.32;;
61397;SDS011;47267;48.130;-2.040;2023-06-01T00:12:05;4.82;;;3.90;;
61397;SDS011;47267;48.130;-2.040;2023-06-01T00:14:31;6.50;;;4.18;;
61397;SDS011;47267;48.130;-2.040;2023-06-01T00:16:57;6.18;;;4.13;;
61397;SDS011;47267;48.130;-2.040;2023-06-01T00:19:24;5.53;;;4.30;;
61397;SDS011;47267;48.130;-2.040;2023-06-01T00:21:53;7.78;;;4.25;;
61397;SDS011;47267;48.130;-2.040;2023-06-01T00:24:19;6.40;;;4.20;;
61397;SDS011;47267;48.130;-2.040;2023-06-01T00:26:46;6.47;;;3.85;;
61397;SDS011;47267;48.130;-2.040;2023-06-01T00:29:11;5.75;;;3.85;;
61397;SDS011;47267;48.130;-2.040;2023-06-01T00:31:38;5.20;;;3.58;;
61397;SDS011;47267;48.130;-2.040;2023-06-01T00:34:05;6.93;;;3.78;;
61397;SDS011;47267;48.130;-2.040;2023-06-01T00:36:32;6.38;;;3.65;;
61397;SDS011;47267;48.130;-2.040;2023-06-01T00:38:58;6.63;;;4.32;;
61397;SDS011;47267;48.130;-2.040;2023-06-01T00:41:27;7.05;;;3.85;;
61397;SDS011;47267;48.130;-2.040;2023-06-01T00:43:53;6.13;;;3.80;;
61397;SDS011;47267;48.130;-2.040;2023-06-01T00:46:19;6.20;;;4.03;;
61397;SDS011;47267;48.130;-2.040;2023-06-01T00:48:45;5.45;;;4.40;;
61397;SDS011;47267;48.130;-2.040;2023-06-01T00:51:11;6.45;;;3.60;;
61397;SDS011;47267;48.130;-2.040;2023-06-01T00:53:40;5.65;;;3.95;;
61397;SDS011;47267;48.130;-2.040;2023-06-01T00:56:06;6.72;;;3.92;;
61397;SDS011;47267;48.130;-2.040;2023-06-01T00:58:32;6.68;;;4.03;;
61397;SDS011;47267;48.130;-2.040;2023-06-01T01:00:58;4.90;;;3.75;;
61397;SDS011;47267;48.130;-2.040;2023-06-01T01:03:24;5.65;;;3.80;;
61397;SDS011;47267;48.130;-2.040;2023-06-01T01:05:51;6.10;;;4.00;;
61397;SDS011;47267;48.130;-2.040;2023-06-01T01:08:37;6.75;;;3.85;;
61397;SDS011;47267;48.130;-2.040;2023-06-01T01:11:32;6.55;;;4.00;;
61397;SDS011;47267;48.130;-2.040;2023-06-01T01:17:09;5.63;;;3.80;;
61397;SDS011;47267;48.130;-2.040;2023-06-01T01:30:38;6.32;;;4.10;;
61397;SDS011;47267;48.130;-2.040;2023-06-01T01:33:06;5.80;;;4.00;;
61397;SDS011;47267;48.130;-2.040;2023-06-01T01:35:32;7.07;;;4.20;;
61397;SDS011;47267;48.130;-2.040;2023-06-01T01:37:59;7.10;;;4.07;;
61397;SDS011;47267;48.130;-2.040;2023-06-01T01:40:24;6.78;;;4.05;;
61397;SDS011;47267;48.130;-2.040;2023-06-01T01:42:50;5.95;;;3.90;;
61397;SDS011;47267;48.130;-2.040;2023-06-01T01:45:17;5.45;;;3.83;;
61397;SDS011;47267;48.130;-2.040;2023-06-01T01:50:47;7.00;;;3.90;;
61397;SDS011;47267;48.130;-2.040;2023-06-01T01:53:17;5.00;;;3.65;;
61397;SDS011;47267;48.130;-2.040;2023-06-01T01:55:44;5.03;;;3.50;;
61397;SDS011;47267;48.130;-2.040;2023-06-01T01:58:13;6.45;;;3.90;;
61397;SDS011;47267;48.130;-2.040;2023-06-01T02:00:40;5.53;;;3.83;;
61397;SDS011;47267;48.130;-2.040;2023-06-01T02:03:12;4.72;;;3.75;;
61397;SDS011;47267;48.130;-2.040;2023-06-01T02:05:41;6.47;;;3.60;;
61397;SDS011;47267;48.130;-2.040;2023-06-01T02:08:07;6.88;;;4.03;;
61397;SDS011;47267;48.130;-2.040;2023-06-01T02:10:33;7.10;;;3.78;;
61397;SDS011;47267;48.130;-2.040;2023-06-01T02:12:59;8.10;;;3.92;;
61397;SDS011;47267;48.130;-2.040;2023-06-01T02:15:25;7.57;;;4.20;;
61397;SDS011;47267;48.130;-2.040;2023-06-01T02:17:51;6.57;;;3.80;;
61397;SDS011;47267;48.130;-2.040;2023-06-01T02:20:18;6.68;;;4.30;;
61397;SDS011;47267;48.130;-2.040;2023-06-01T02:22:44;5.28;;;3.55;;
61397;SDS011;47267;48.130;-2.040;2023-06-01T02:25:10;5.25;;;3.60;;
61397;SDS011;47267;48.130;-2.040;2023-06-01T02:27:36;7.15;;;3.90;;
61397;SDS011;47267;48.130;-2.040;2023-06-01T02:30:02;7.32;;;3.90;;
61397;SDS011;47267;48.130;-2.040;2023-06-01T02:32:28;7.18;;;3.85;;
61397;SDS011;47267;48.130;-2.040;2023-06-01T02:34:55;6.53;;;3.90;;
61397;SDS011;47267;48.130;-2.040;2023-06-01T02:37:21;6.60;;;3.72;;
61397;SDS011;47267;48.130;-2.040;2023-06-01T02:39:47;4.95;;;3.60;;
61397;SDS011;47267;48.130;-2.040;2023-06-01T02:42:12;6.05;;;3.80;;
61397;SDS011;47267;48.130;-2.040;2023-06-01T02:44:38;5.38;;;3.67;;
61397;SDS011;47267;48.130;-2.040;2023-06-01T02:47:04;7.82;;;3.83;;
61397;SDS011;47267;48.130;-2.040;2023-06-01T02:49:31;5.45;;;3.45;;
61397;SDS011;47267;48.130;-2.040;2023-06-01T02:51:56;6.85;;;4.05;;
61397;SDS011;47267;48.130;-2.040;2023-06-01T02:54:22;7.97;;;4.10;;
61397;SDS011;47267;48.130;-2.040;2023-06-01T02:56:48;6.43;;;3.58;;
61397;SDS011;47267;48.130;-2.040;2023-06-01T02:59:13;6.78;;;3.78;;
61397;SDS011;47267;48.130;-2.040;2023-06-01T03:01:39;6.18;;;4.18;;
61397;SDS011;47267;48.130;-2.040;2023-06-01T03:04:05;8.13;;;3.75;;
61397;SDS011;47267;48.130;-2.040;2023-06-01T03:06:32;5.85;;;3.97;;
61397;SDS011;47267;48.130;-2.040;2023-06-01T03:09:05;5.60;;;3.80;;
61397;SDS011;47267;48.130;-2.040;2023-06-01T03:11:37;6.22;;;4.20;;
61397;SDS011;47267;48.130;-2.040;2023-06-01T03:14:07;6.22;;;4.03;;
61397;SDS011;47267;48.130;-2.040;2023-06-01T03:16:33;7.45;;;4.10;;
61397;SDS011;47267;48.130;-2.040;2023-06-01T03:19:00;6.00;;;3.65;;
61397;SDS011;47267;48.130;-2.040;2023-06-01T03:21:29;5.78;;;3.80;;
61397;SDS011;47267;48.130;-2.040;2023-06-01T03:23:56;7.28;;;3.90;;
61397;SDS011;47267;48.130;-2.040;2023-06-01T03:26:21;6.93;;;4.15;;
61397;SDS011;47267;48.130;-2.040;2023-06-01T03:28:47;6.90;;;3.90;;
61397;SDS011;47267;48.130;-2.040;2023-06-01T03:31:13;5.65;;;3.88;;
61397;SDS011;47267;48.130;-2.040;2023-06-01T03:33:39;7.15;;;3.97;;
61397;SDS011;47267;48.130;-2.040;2023-06-01T03:36:04;5.45;;;3.80;;
61397;SDS011;47267;48.130;-2.040;2023-06-01T03:38:32;4.90;;;3.63;;
61397;SDS011;47267;48.130;-2.040;2023-06-01T03:40:59;5.97;;;3.90;;
61397;SDS011;47267;48.130;-2.040;2023-06-01T03:43:25;7.32;;;4.10;;
61397;SDS011;47267;48.130;-2.040;2023-06-01T03:45:51;7.10;;;3.88;;
61397;SDS011;47267;48.130;-2.040;2023-06-01T03:48:17;6.55;;;4.10;;
61397;SDS011;47267;48.130;-2.040;2023-06-01T03:50:43;6.28;;;4.05;;
61397;SDS011;47267;48.130;-2.040;2023-06-01T03:53:08;5.07;;;4.00;;
61397;SDS011;47267;48.130;-2.040;2023-06-01T03:55:34;5.78;;;3.80;;
61397;SDS011;47267;48.130;-2.040;2023-06-01T03:58:00;6.03;;;4.25;;
61397;SDS011;47267;48.130;-2.040;2023-06-01T04:00:27;6.00;;;3.90;;
61397;SDS011;47267;48.130;-2.040;2023-06-01T04:02:54;6.25;;;4.07;;
61397;SDS011;47267;48.130;-2.040;2023-06-01T04:05:22;4.90;;;3.75;;
61397;SDS011;47267;48.130;-2.040;2023-06-01T04:07:49;5.20;;;3.63;;
61397;SDS011;47267;48.130;-2.040;2023-06-01T04:10:16;5.20;;;3.38;;
61397;SDS011;47267;48.130;-2.040;2023-06-01T04:12:42;7.63;;;3.95;;
61397;SDS011;47267;48.130;-2.040;2023-06-01T04:15:12;7.00;;;4.22;;
61397;SDS011;47267;48.130;-2.040;2023-06-01T04:17:40;5.30;;;3.72;;
61397;SDS011;47267;48.130;-2.040;2023-06-01T04:20:10;5.88;;;3.88;;
61397;SDS011;47267;48.130;-2.040;2023-06-01T04:22:37;6.57;;;4.22;;
61397;SDS011;47267;48.130;-2.040;2023-06-01T04:25:05;6.07;;;4.25;;
61397;SDS011;47267;48.130;-2.040;2023-06-01T04:27:36;4.97;;;3.55;;
61397;SDS011;47267;48.130;-2.040;2023-06-01T04:30:06;5.60;;;4.05;;
61397;SDS011;47267;48.130;-2.040;2023-06-01T04:32:35;6.30;;;4.30;;
61397;SDS011;47267;48.130;-2.040;2023-06-01T04:35:03;7.43;;;4.40;;
61397;SDS011;47267;48.130;-2.040;2023-06-01T04:37:32;6.55;;;3.75;;
61397;SDS011;47267;48.130;-2.040;2023-06-01T04:39:59;5.82;;;4.28;;
61397;SDS011;47267;48.130;-2.040;2023-06-01T04:42:25;6.25;;;3.72;;
61397;SDS011;47267;48.130;-2.040;2023-06-01T04:44:51;4.90;;;3.47;;
61397;SDS011;47267;48.130;-2.040;2023-06-01T04:47:17;6.43;;;4.22;;
61397;SDS011;47267;48.130;-2.040;2023-06-01T04:49:43;5.80;;;3.58;;
61397;SDS011;47267;48.130;-2.040;2023-06-01T04:52:09;7.95;;;4.05;;
61397;SDS011;47267;48.130;-2.040;2023-06-01T04:54:37;6.40;;;4.28;;
61397;SDS011;47267;48.130;-2.040;2023-06-01T04:57:03;7.55;;;4.60;;
61397;SDS011;47267;48.130;-2.040;2023-06-01T04:59:31;5.68;;;3.75;;
61397;SDS011;47267;48.130;-2.040;2023-06-01T05:01:57;6.72;;;4.18;;
61397;SDS011;47267;48.130;-2.040;2023-06-01T05:04:23;5.30;;;3.80;;
61397;SDS011;47267;48.130;-2.040;2023-06-01T05:06:49;5.85;;;3.97;;
61397;SDS011;47267;48.130;-2.040;2023-06-01T05:09:14;5.55;;;3.85;;
61397;SDS011;47267;48.130;-2.040;2023-06-01T05:11:40;5.82;;;4.03;;
61397;SDS011;47267;48.130;-2.040;2023-06-01T05:14:06;9.18;;;4.90;;
61397;SDS011;47267;48.130;-2.040;2023-06-01T05:16:32;6.63;;;4.07;;
61397;SDS011;47267;48.130;-2.040;2023-06-01T05:18:58;5.63;;;4.07;;
61397;SDS011;47267;48.130;-2.040;2023-06-01T05:21:24;5.80;;;3.72;;
61397;SDS011;47267;48.130;-2.040;2023-06-01T05:23:49;8.13;;;4.40;;
61397;SDS011;47267;48.130;-2.040;2023-06-01T05:26:15;5.65;;;4.10;;
61397;SDS011;47267;48.130;-2.040;2023-06-01T05:28:41;6.57;;;4.25;;
61397;SDS011;47267;48.130;-2.040;2023-06-01T05:31:07;6.07;;;3.75;;
61397;SDS011;47267;48.130;-2.040;2023-06-01T05:33:33;5.53;;;3.92;;
61397;SDS011;47267;48.130;-2.040;2023-06-01T05:35:58;7.38;;;4.30;;
61397;SDS011;47267;48.130;-2.040;2023-06-01T05:38:25;7.30;;;4.50;;
61397;SDS011;47267;48.130;-2.040;2023-06-01T05:40:50;5.88;;;3.78;;
61397;SDS011;47267;48.130;-2.040;2023-06-01T05:43:16;6.95;;;3.97;;
61397;SDS011;47267;48.130;-2.040;2023-06-01T05:45:41;5.70;;;4.20;;
61397;SDS011;47267;48.130;-2.040;2023-06-01T05:48:07;6.10;;;4.03;;
61397;SDS011;47267;48.130;-2.040;2023-06-01T05:50:33;5.30;;;3.65;;
61397;SDS011;47267;48.130;-2.040;2023-06-01T05:52:58;9.20;;;4.50;;
61397;SDS011;47267;48.130;-2.040;2023-06-01T05:55:24;6.20;;;4.10;;
61397;SDS011;47267;48.130;-2.040;2023-06-01T05:57:50;6.55;;;4.18;;
61397;SDS011;47267;48.130;-2.040;2023-06-01T06:00:16;6.90;;;4.32;;
61397;SDS011;47267;48.130;-2.040;2023-06-01T06:02:42;6.60;;;4.35;;
61397;SDS011;47267;48.130;-2.040;2023-06-01T06:05:08;7.88;;;4.47;;
61397;SDS011;47267;48.130;-2.040;2023-06-01T06:07:34;8.30;;;4.68;;
61397;SDS011;47267;48.130;-2.040;2023-06-01T06:10:00;11.65;;;5.00;;
61397;SDS011;47267;48.130;-2.040;2023-06-01T06:12:27;9.43;;;4.80;;
61397;SDS011;47267;48.130;-2.040;2023-06-01T06:14:52;10.43;;;5.63;;
61397;SDS011;47267;48.130;-2.040;2023-06-01T06:17:18;10.60;;;4.95;;
61397;SDS011;47267;48.130;-2.040;2023-06-01T06:19:44;10.70;;;5.47;;
61397;SDS011;47267;48.130;-2.040;2023-06-01T06:22:12;11.13;;;5.13;;
61397;SDS011;47267;48.130;-2.040;2023-06-01T06:24:38;11.57;;;5.47;;
61397;SDS011;47267;48.130;-2.040;2023-06-01T06:27:04;9.52;;;5.18;;
61397;SDS011;47267;48.130;-2.040;2023-06-01T06:29:31;9.55;;;5.75;;
61397;SDS011;47267;48.130;-2.040;2023-06-01T06:31:57;11.82;;;5.43;;
61397;SDS011;47267;48.130;-2.040;2023-06-01T06:34:23;12.15;;;6.10;;
61397;SDS011;47267;48.130;-2.040;2023-06-01T06:36:49;12.40;;;6.05;;
61397;SDS011;47267;48.130;-2.040;2023-06-01T06:39:15;15.02;;;6.22;;
61397;SDS011;47267;48.130;-2.040;2023-06-01T06:41:41;16.48;;;6.03;;
61397;SDS011;47267;48.130;-2.040;2023-06-01T06:44:07;12.52;;;6.53;;
61397;SDS011;47267;48.130;-2.040;2023-06-01T06:46:33;11.90;;;5.93;;
61397;SDS011;47267;48.130;-2.040;2023-06-01T06:48:59;11.27;;;5.72;;
61397;SDS011;47267;48.130;-2.040;2023-06-01T06:51:25;12.98;;;6.00;;
61397;SDS011;47267;48.130;-2.040;2023-06-01T06:53:50;9.43;;;5.75;;
61397;SDS011;47267;48.130;-2.040;2023-06-01T06:56:16;13.82;;;6.13;;
61397;SDS011;47267;48.130;-2.040;2023-06-01T06:58:43;10.20;;;5.97;;
61397;SDS011;47267;48.130;-2.040;2023-06-01T07:01:09;13.88;;;5.90;;
61397;SDS011;47267;48.130;-2.040;2023-06-01T07:03:35;15.82;;;6.50;;
61397;SDS011;47267;48.130;-2.040;2023-06-01T07:06:02;12.20;;;6.35;;
61397;SDS011;47267;48.130;-2.040;2023-06-01T07:08:27;12.95;;;6.25;;
61397;SDS011;47267;48.130;-2.040;2023-06-01T07:10:53;11.93;;;6.32;;
61397;SDS011;47267;48.130;-2.040;2023-06-01T07:13:21;9.65;;;6.03;;
61397;SDS011;47267;48.130;-2.040;2023-06-01T07:15:47;11.65;;;6.43;;
61397;SDS011;47267;48.130;-2.040;2023-06-01T07:18:12;14.15;;;6.65;;
61397;SDS011;47267;48.130;-2.040;2023-06-01T07:20:38;9.60;;;6.22;;
61397;SDS011;47267;48.130;-2.040;2023-06-01T07:23:04;13.02;;;6.05;;
61397;SDS011;47267;48.130;-2.040;2023-06-01T07:25:29;9.38;;;6.13;;
61397;SDS011;47267;48.130;-2.040;2023-06-01T07:27:55;12.15;;;6.63;;
61397;SDS011;47267;48.130;-2.040;2023-06-01T07:30:21;10.32;;;6.20;;
61397;SDS011;47267;48.130;-2.040;2023-06-01T07:32:47;10.75;;;6.20;;
61397;SDS011;47267;48.130;-2.040;2023-06-01T07:35:13;11.57;;;6.35;;
61397;SDS011;47267;48.130;-2.040;2023-06-01T07:37:39;11.07;;;5.80;;
61397;SDS011;47267;48.130;-2.040;2023-06-01T07:40:06;11.57;;;6.40;;
61397;SDS011;47267;48.130;-2.040;2023-06-01T07:42:32;11.80;;;6.72;;
61397;SDS011;47267;48.130;-2.040;2023-06-01T07:44:58;11.18;;;5.80;;
61397;SDS011;47267;48.130;-2.040;2023-06-01T07:47:24;9.27;;;6.05;;
61397;SDS011;47267;48.130;-2.040;2023-06-01T07:49:50;10.13;;;6.82;;
61397;SDS011;47267;48.130;-2.040;2023-06-01T07:52:16;11.63;;;6.32;;
61397;SDS011;47267;48.130;-2.040;2023-06-01T07:54:42;10.98;;;5.85;;
61397;SDS011;47267;48.130;-2.040;2023-06-01T07:57:08;10.55;;;6.47;;
61397;SDS011;47267;48.130;-2.040;2023-06-01T07:59:33;10.65;;;5.72;;
61397;SDS011;47267;48.130;-2.040;2023-06-01T08:01:59;10.32;;;6.47;;
61397;SDS011;47267;48.130;-2.040;2023-06-01T08:04:25;10.60;;;6.43;;
61397;SDS011;47267;48.130;-2.040;2023-06-01T08:06:52;9.32;;;5.68;;
61397;SDS011;47267;48.130;-2.040;2023-06-01T08:09:21;11.50;;;6.13;;
61397;SDS011;47267;48.130;-2.040;2023-06-01T08:11:48;7.47;;;5.38;;
61397;SDS011;47267;48.130;-2.040;2023-06-01T08:14:15;10.07;;;6.00;;
61397;SDS011;47267;48.130;-2.040;2023-06-01T08:16:42;10.18;;;5.78;;
61397;SDS011;47267;48.130;-2.040;2023-06-01T08:19:08;9.25;;;5.68;;
61397;SDS011;47267;48.130;-2.040;2023-06-01T08:21:33;10.38;;;6.07;;
61397;SDS011;47267;48.130;-2.040;2023-06-01T08:24:00;10.38;;;5.97;;
61397;SDS011;47267;48.130;-2.040;2023-06-01T08:26:27;13.80;;;5.95;;
61397;SDS011;47267;48.130;-2.040;2023-06-01T08:28:53;7.85;;;5.78;;
61397;SDS011;47267;48.130;-2.040;2023-06-01T08:31:22;9.98;;;5.97;;
61397;SDS011;47267;48.130;-2.040;2023-06-01T08:33:49;11.10;;;6.03;;
61397;SDS011;47267;48.130;-2.040;2023-06-01T08:36:16;8.07;;;5.72;;
61397;SDS011;47267;48.130;-2.040;2023-06-01T08:38:43;12.85;;;6.50;;
61397;SDS011;47267;48.130;-2.040;2023-06-01T08:41:25;10.50;;;5.78;;
61397;SDS011;47267;48.130;-2.040;2023-06-01T08:44:14;8.55;;;5.68;;
61397;SDS011;47267;48.130;-2.040;2023-06-01T08:46:43;11.88;;;5.60;;
61397;SDS011;47267;48.130;-2.040;2023-06-01T08:49:09;9.35;;;6.13;;
61397;SDS011;47267;48.130;-2.040;2023-06-01T08:51:38;9.40;;;5.80;;
61397;SDS011;47267;48.130;-2.040;2023-06-01T08:54:08;11.40;;;5.90;;
61397;SDS011;47267;48.130;-2.040;2023-06-01T08:56:34;11.30;;;5.70;;
61397;SDS011;47267;48.130;-2.040;2023-06-01T08:59:02;10.48;;;6.72;;
61397;SDS011;47267;48.130;-2.040;2023-06-01T09:01:28;10.55;;;5.82;;
61397;SDS011;47267;48.130;-2.040;2023-06-01T09:03:54;9.95;;;5.90;;
61397;SDS011;47267;48.130;-2.040;2023-06-01T09:06:20;8.80;;;5.68;;
61397;SDS011;47267;48.130;-2.040;2023-06-01T09:08:46;7.75;;;5.43;;
61397;SDS011;47267;48.130;-2.040;2023-06-01T09:11:12;8.95;;;5.97;;
61397;SDS011;47267;48.130;-2.040;2023-06-01T09:13:38;10.52;;;6.07;;
61397;SDS011;47267;48.130;-2.040;2023-06-01T09:16:05;13.50;;;7.00;;
61397;SDS011;47267;48.130;-2.040;2023-06-01T09:18:31;8.95;;;6.05;;
61397;SDS011;47267;48.130;-2.040;2023-06-01T09:21:13;9.60;;;6.57;;
61397;SDS011;47267;48.130;-2.040;2023-06-01T09:23:40;6.60;;;5.68;;
61397;SDS011;47267;48.130;-2.040;2023-06-01T09:26:11;8.00;;;6.00;;
61397;SDS011;47267;48.130;-2.040;2023-06-01T09:31:45;7.13;;;5.70;;
61397;SDS011;47267;48.130;-2.040;2023-06-01T09:34:13;7.00;;;5.70;;
61397;SDS011;47267;48.130;-2.040;2023-06-01T09:36:49;7.97;;;5.72;;
61397;SDS011;47267;48.130;-2.040;2023-06-01T09:39:23;9.10;;;5.93;;
61397;SDS011;47267;48.130;-2.040;2023-06-01T09:41:53;7.47;;;5.70;;
61397;SDS011;47267;48.130;-2.040;2023-06-01T09:46:59;7.20;;;5.85;;
61397;SDS011;47267;48.130;-2.040;2023-06-01T09:49:29;8.57;;;5.97;;
61397;SDS011;47267;48.130;-2.040;2023-06-01T09:54:33;8.10;;;5.38;;
61397;SDS011;47267;48.130;-2.040;2023-06-01T09:57:02;8.57;;;5.57;;
61397;SDS011;47267;48.130;-2.040;2023-06-01T09:59:29;7.65;;;5.97;;
61397;SDS011;47267;48.130;-2.040;2023-06-01T10:02:01;7.55;;;5.70;;
61397;SDS011;47267;48.130;-2.040;2023-06-01T10:04:30;8.80;;;5.80;;
61397;SDS011;47267;48.130;-2.040;2023-06-01T10:06:57;6.82;;;5.65;;
61397;SDS011;47267;48.130;-2.040;2023-06-01T10:09:23;7.90;;;5.50;;
61397;SDS011;47267;48.130;-2.040;2023-06-01T10:11:52;6.55;;;5.38;;
61397;SDS011;47267;48.130;-2.040;2023-06-01T10:14:22;9.95;;;6.63;;
61397;SDS011;47267;48.130;-2.040;2023-06-01T10:16:53;7.30;;;5.72;;
61397;SDS011;47267;48.130;-2.040;2023-06-01T10:19:22;7.50;;;6.20;;
61397;SDS011;47267;48.130;-2.040;2023-06-01T10:21:48;7.97;;;5.68;;
61397;SDS011;47267;48.130;-2.040;2023-06-01T10:24:17;8.43;;;5.55;;
61397;SDS011;47267;48.130;-2.040;2023-06-01T10:26:46;8.05;;;5.78;;
61397;SDS011;47267;48.130;-2.040;2023-06-01T10:29:14;7.70;;;5.82;;
61397;SDS011;47267;48.130;-2.040;2023-06-01T10:31:42;10.15;;;6.07;;
61397;SDS011;47267;48.130;-2.040;2023-06-01T10:34:09;8.13;;;6.40;;
61397;SDS011;47267;48.130;-2.040;2023-06-01T10:41:51;6.45;;;5.40;;
61397;SDS011;47267;48.130;-2.040;2023-06-01T10:54:52;8.48;;;6.13;;
61397;SDS011;47267;48.130;-2.040;2023-06-01T11:00:33;6.97;;;6.25;;
61397;SDS011;47267;48.130;-2.040;2023-06-01T11:02:48;7.13;;;5.65;;
61397;SDS011;47267;48.130;-2.040;2023-06-01T11:05:35;7.00;;;5.80;;
61397;SDS011;47267;48.130;-2.040;2023-06-01T11:13:29;6.53;;;5.90;;
61397;SDS011;47267;48.130;-2.040;2023-06-01T11:21:10;7.00;;;5.82;;
61397;SDS011;47267;48.130;-2.040;2023-06-01T11:23:41;7.20;;;6.00;;
61397;SDS011;47267;48.130;-2.040;2023-06-01T11:26:07;7.10;;;5.97;;
61397;SDS011;47267;48.130;-2.040;2023-06-01T11:28:33;6.97;;;5.50;;
61397;SDS011;47267;48.130;-2.040;2023-06-01T11:31:00;6.00;;;5.40;;
61397;SDS011;47267;48.130;-2.040;2023-06-01T11:33:27;8.00;;;6.05;;
61397;SDS011;47267;48.130;-2.040;2023-06-01T11:35:58;7.70;;;5.95;;
61397;SDS011;47267;48.130;-2.040;2023-06-01T11:38:31;8.15;;;6.43;;
61397;SDS011;47267;48.130;-2.040;2023-06-01T11:41:02;7.88;;;6.88;;
61397;SDS011;47267;48.130;-2.040;2023-06-01T11:43:31;6.65;;;5.78;;
61397;SDS011;47267;48.130;-2.040;2023-06-01T11:46:06;7.65;;;6.05;;
61397;SDS011;47267;48.130;-2.040;2023-06-01T11:48:34;7.63;;;5.93;;
61397;SDS011;47267;48.130;-2.040;2023-06-01T11:51:00;7.55;;;5.45;;
61397;SDS011;47267;48.130;-2.040;2023-06-01T11:53:27;7.32;;;5.88;;
61397;SDS011;47267;48.130;-2.040;2023-06-01T11:55:56;7.15;;;5.72;;
61397;SDS011;47267;48.130;-2.040;2023-06-01T12:00:52;8.23;;;6.07;;
61397;SDS011;47267;48.130;-2.040;2023-06-01T12:03:19;6.57;;;5.30;;
61397;SDS011;47267;48.130;-2.040;2023-06-01T12:05:45;6.75;;;5.80;;
61397;SDS011;47267;48.130;-2.040;2023-06-01T12:08:17;7.68;;;5.80;;
61397;SDS011;47267;48.130;-2.040;2023-06-01T12:10:51;7.75;;;5.90;;
61397;SDS011;47267;48.130;-2.040;2023-06-01T12:13:18;9.30;;;6.07;;
61397;SDS011;47267;48.130;-2.040;2023-06-01T12:15:45;7.95;;;6.18;;
61397;SDS011;47267;48.130;-2.040;2023-06-01T12:18:11;6.32;;;5.63;;
61397;SDS011;47267;48.130;-2.040;2023-06-01T12:20:41;6.88;;;5.85;;
61397;SDS011;47267;48.130;-2.040;2023-06-01T12:25:51;6.50;;;5.78;;
61397;SDS011;47267;48.130;-2.040;2023-06-01T12:28:23;6.70;;;5.47;;
61397;SDS011;47267;48.130;-2.040;2023-06-01T12:31:07;6.72;;;6.03;;
61397;SDS011;47267;48.130;-2.040;2023-06-01T12:33:34;6.63;;;5.93;;
61397;SDS011;47267;48.130;-2.040;2023-06-01T12:36:01;6.63;;;5.40;;
61397;SDS011;47267;48.130;-2.040;2023-06-01T12:38:33;6.25;;;5.63;;
61397;SDS011;47267;48.130;-2.040;2023-06-01T12:41:13;6.93;;;6.20;;
61397;SDS011;47267;48.130;-2.040;2023-06-01T12:43:43;7.25;;;6.10;;
61397;SDS011;47267;48.130;-2.040;2023-06-01T12:46:17;6.53;;;5.43;;
61397;SDS011;47267;48.130;-2.040;2023-06-01T12:48:45;7.93;;;5.93;;
61397;SDS011;47267;48.130;-2.040;2023-06-01T12:51:12;7.28;;;5.63;;
61397;SDS011;47267;48.130;-2.040;2023-06-01T12:53:38;7.18;;;5.72;;
61397;SDS011;47267;48.130;-2.040;2023-06-01T12:56:04;7.82;;;6.07;;
61397;SDS011;47267;48.130;-2.040;2023-06-01T12:58:31;8.57;;;6.05;;
61397;SDS011;47267;48.130;-2.040;2023-06-01T13:00:57;6.45;;;5.40;;
61397;SDS011;47267;48.130;-2.040;2023-06-01T13:03:23;6.20;;;5.45;;
61397;SDS011;47267;48.130;-2.040;2023-06-01T13:05:49;6.78;;;5.70;;
61397;SDS011;47267;48.130;-2.040;2023-06-01T13:08:17;9.27;;;6.28;;
61397;SDS011;47267;48.130;-2.040;2023-06-01T13:10:43;7.22;;;5.88;;
61397;SDS011;47267;48.130;-2.040;2023-06-01T13:13:13;6.93;;;5.78;;
61397;SDS011;47267;48.130;-2.040;2023-06-01T13:15:42;6.22;;;5.35;;
61397;SDS011;47267;48.130;-2.040;2023-06-01T13:18:09;6.57;;;5.40;;
61397;SDS011;47267;48.130;-2.040;2023-06-01T13:20:36;6.95;;;5.47;;
61397;SDS011;47267;48.130;-2.040;2023-06-01T13:23:02;6.80;;;5.70;;
61397;SDS011;47267;48.130;-2.040;2023-06-01T13:25:31;6.78;;;5.35;;
61397;SDS011;47267;48.130;-2.040;2023-06-01T13:27:58;6.53;;;5.47;;
61397;SDS011;47267;48.130;-2.040;2023-06-01T13:30:25;6.72;;;5.75;;
61397;SDS011;47267;48.130;-2.040;2023-06-01T13:32:53;6.32;;;5.38;;
61397;SDS011;47267;48.130;-2.040;2023-06-01T13:35:19;6.95;;;6.03;;
61397;SDS011;47267;48.130;-2.040;2023-06-01T13:37:45;5.93;;;5.15;;
61397;SDS011;47267;48.130;-2.040;2023-06-01T13:40:12;5.95;;;5.20;;
61397;SDS011;47267;48.130;-2.040;2023-06-01T13:42:38;6.13;;;5.45;;
61397;SDS011;47267;48.130;-2.040;2023-06-01T13:45:04;7.13;;;5.55;;
61397;SDS011;47267;48.130;-2.040;2023-06-01T13:47:30;6.40;;;4.90;;
61397;SDS011;47267;48.130;-2.040;2023-06-01T13:49:55;6.63;;;5.30;;
61397;SDS011;47267;48.130;-2.040;2023-06-01T13:52:21;7.47;;;5.50;;
61397;SDS011;47267;48.130;-2.040;2023-06-01T13:54:50;8.65;;;5.75;;
61397;SDS011;47267;48.130;-2.040;2023-06-01T13:57:16;6.05;;;5.45;;
61397;SDS011;47267;48.130;-2.040;2023-06-01T13:59:42;7.60;;;5.38;;
61397;SDS011;47267;48.130;-2.040;2023-06-01T14:02:08;6.05;;;5.45;;
61397;SDS011;47267;48.130;-2.040;2023-06-01T14:04:34;6.57;;;5.00;;
61397;SDS011;47267;48.130;-2.040;2023-06-01T14:06:59;6.22;;;5.10;;
61397;SDS011;47267;48.130;-2.040;2023-06-01T14:09:25;6.13;;;5.10;;
61397;SDS011;47267;48.130;-2.040;2023-06-01T14:11:51;6.47;;;4.88;;
61397;SDS011;47267;48.130;-2.040;2023-06-01T14:14:16;6.75;;;5.28;;
61397;SDS011;47267;48.130;-2.040;2023-06-01T14:16:42;6.80;;;5.50;;
61397;SDS011;47267;48.130;-2.040;2023-06-01T14:19:08;7.88;;;5.57;;
61397;SDS011;47267;48.130;-2.040;2023-06-01T14:21:33;6.32;;;4.97;;
61397;SDS011;47267;48.130;-2.040;2023-06-01T14:24:03;6.32;;;5.45;;
61397;SDS011;47267;48.130;-2.040;2023-06-01T14:26:29;5.57;;;5.03;;
61397;SDS011;47267;48.130;-2.040;2023-06-01T14:28:54;5.90;;;5.25;;
61397;SDS011;47267;48.130;-2.040;2023-06-01T14:31:20;7.15;;;5.22;;
61397;SDS011;47267;48.130;-2.040;2023-06-01T14:33:47;6.47;;;4.95;;
61397;SDS011;47267;48.130;-2.040;2023-06-01T14:36:13;6.47;;;5.18;;
61397;SDS011;47267;48.130;-2.040;2023-06-01T14:38:38;6.38;;;5.22;;
61397;SDS011;47267;48.130;-2.040;2023-06-01T14:41:05;5.63;;;4.93;;
61397;SDS011;47267;48.130;-2.040;2023-06-01T14:43:31;5.90;;;5.30;;
61397;SDS011;47267;48.130;-2.040;2023-06-01T14:45:57;5.88;;;5.18;;
61397;SDS011;47267;48.130;-2.040;2023-06-01T14:48:22;5.30;;;4.75;;
61397;SDS011;47267;48.130;-2.040;2023-06-01T14:50:48;5.50;;;4.90;;
61397;SDS011;47267;48.130;-2.040;2023-06-01T14:53:14;6.68;;;5.15;;
61397;SDS011;47267;48.130;-2.040;2023-06-01T14:55:40;6.25;;;5.65;;
61397;SDS011;47267;48.130;-2.040;2023-06-01T14:58:06;5.70;;;4.70;;
61397;SDS011;47267;48.130;-2.040;2023-06-01T15:00:35;5.10;;;4.60;;
61397;SDS011;47267;48.130;-2.040;2023-06-01T15:03:02;5.75;;;4.90;;
61397;SDS011;47267;48.130;-2.040;2023-06-01T15:05:32;5.55;;;4.78;;
61397;SDS011;47267;48.130;-2.040;2023-06-01T15:07:58;6.50;;;5.05;;
61397;SDS011;47267;48.130;-2.040;2023-06-01T15:10:24;6.07;;;4.70;;
61397;SDS011;47267;48.130;-2.040;2023-06-01T15:12:50;5.53;;;4.93;;
61397;SDS011;47267;48.130;-2.040;2023-06-01T15:15:16;6.07;;;4.93;;
61397;SDS011;47267;48.130;-2.040;2023-06-01T15:17:42;6.07;;;4.85;;
61397;SDS011;47267;48.130;-2.040;2023-06-01T15:20:08;5.50;;;5.00;;
61397;SDS011;47267;48.130;-2.040;2023-06-01T15:22:34;6.13;;;5.35;;
61397;SDS011;47267;48.130;-2.040;2023-06-01T15:24:59;7.32;;;5.05;;
61397;SDS011;47267;48.130;-2.040;2023-06-01T15:27:25;5.30;;;4.80;;
61397;SDS011;47267;48.130;-2.040;2023-06-01T15:29:51;5.28;;;4.60;;
61397;SDS011;47267;48.130;-2.040;2023-06-01T15:32:16;6.18;;;4.75;;
61397;SDS011;47267;48.130;-2.040;2023-06-01T15:34:42;5.22;;;4.70;;